N11059 KORF-KLAS
Flight info
| Callsign | N11059 |
|---|---|
| Flight time | N/A |
| Altitude | 20000 |
| Route | KORF NUTIY1 KELLE JEEVY DCT PINEE DCT ZITXI DCT FEEBE DCT JODPU DCT FEBEM DCT EDPIW DCT UDCOS DCT MOGIE DCT ZUPAB DCT TOKIE DCT KINGO DCT HELPS DCT TANZU DCT PGA BLAID20 KLAS |
| Aircraft | U16/M-V/N |
Departure
| Time | 2026-04-22 23:30 |
|---|---|
| Airport | Norfolk International Airport (KORF) |
Arrival
| Time | N/A |
|---|---|
| Airport | Harry Reid International Airport (KLAS) |
| Time | Latitude | Longitude | Altitude | Speed | Heading |
|---|---|---|---|---|---|
| 2026-04-22 22:59 | 36.88737 | -76.20088 | 30 ft | 0 kts | 38° |
| 2026-04-22 23:21 | 36.88744 | -76.20080 | 30 ft | 4 kts | 45° |
| 2026-04-22 23:22 | 36.88750 | -76.20021 | 29 ft | 10 kts | 126° |
| 2026-04-22 23:22 | 36.88741 | -76.20014 | 29 ft | 2 kts | 182° |
| 2026-04-22 23:22 | 36.88737 | -76.20038 | 29 ft | 6 kts | 307° |
| 2026-04-22 23:22 | 36.88787 | -76.20090 | 30 ft | 12 kts | 337° |
| 2026-04-22 23:23 | 36.88835 | -76.20039 | 30 ft | 9 kts | 68° |
| 2026-04-22 23:23 | 36.88837 | -76.20030 | 30 ft | 0 kts | 68° |
| 2026-04-22 23:24 | 36.88838 | -76.20029 | 30 ft | 1 kts | 68° |
| 2026-04-22 23:25 | 36.88848 | -76.19995 | 30 ft | 8 kts | 69° |
| 2026-04-22 23:25 | 36.88877 | -76.19903 | 31 ft | 15 kts | 69° |
| 2026-04-22 23:25 | 36.88896 | -76.19756 | 31 ft | 20 kts | 61° |
| 2026-04-22 23:25 | 36.89022 | -76.19662 | 33 ft | 24 kts | 27° |
| 2026-04-22 23:26 | 36.89186 | -76.19568 | 33 ft | 28 kts | 25° |
| 2026-04-22 23:26 | 36.89325 | -76.19488 | 34 ft | 18 kts | 22° |
| 2026-04-22 23:26 | 36.89426 | -76.19469 | 34 ft | 13 kts | 1° |
| 2026-04-22 23:26 | 36.89500 | -76.19469 | 33 ft | 9 kts | 1° |
| 2026-04-22 23:27 | 36.89550 | -76.19467 | 32 ft | 6 kts | 2° |
| 2026-04-22 23:27 | 36.89602 | -76.19465 | 33 ft | 9 kts | 1° |
| 2026-04-22 23:27 | 36.89673 | -76.19463 | 34 ft | 11 kts | 1° |
| 2026-04-22 23:27 | 36.89754 | -76.19461 | 35 ft | 13 kts | 0° |
| 2026-04-22 23:28 | 36.89848 | -76.19461 | 36 ft | 14 kts | 1° |
| 2026-04-22 23:28 | 36.89873 | -76.19460 | 35 ft | 0 kts | 1° |
| 2026-04-22 23:28 | 36.89875 | -76.19460 | 35 ft | 1 kts | 1° |
| 2026-04-22 23:29 | 36.89914 | -76.19458 | 35 ft | 10 kts | 2° |
| 2026-04-22 23:29 | 36.89934 | -76.19526 | 34 ft | 5 kts | 217° |
| 2026-04-22 23:29 | 36.89907 | -76.19550 | 34 ft | 29 kts | 216° |
| 2026-04-22 23:30 | 36.89548 | -76.19900 | 39 ft | 96 kts | 218° |
| 2026-04-22 23:30 | 36.88950 | -76.20509 | 222 ft | 125 kts | 217° |
| 2026-04-22 23:30 | 36.88247 | -76.21219 | 690 ft | 128 kts | 220° |
| 2026-04-22 23:30 | 36.87571 | -76.21841 | 1362 ft | 117 kts | 221° |
| 2026-04-22 23:31 | 36.86779 | -76.22482 | 1399 ft | 158 kts | 218° |
| 2026-04-22 23:31 | 36.85827 | -76.23366 | 1320 ft | 186 kts | 229° |
| 2026-04-22 23:31 | 36.85281 | -76.24831 | 1359 ft | 191 kts | 270° |
| 2026-04-22 23:31 | 36.85656 | -76.26376 | 1590 ft | 188 kts | 300° |
| 2026-04-22 23:32 | 36.86214 | -76.27849 | 1811 ft | 189 kts | 288° |
| 2026-04-22 23:32 | 36.86518 | -76.29439 | 2033 ft | 190 kts | 282° |
| 2026-04-22 23:32 | 36.86803 | -76.31063 | 2243 ft | 189 kts | 283° |
| 2026-04-22 23:32 | 36.87092 | -76.32641 | 2454 ft | 183 kts | 283° |
| 2026-04-22 23:33 | 36.87362 | -76.34158 | 2657 ft | 175 kts | 282° |
| 2026-04-22 23:33 | 36.87620 | -76.35608 | 2856 ft | 168 kts | 282° |
| 2026-04-22 23:33 | 36.87873 | -76.37023 | 3057 ft | 169 kts | 282° |
| 2026-04-22 23:33 | 36.88130 | -76.38454 | 3257 ft | 169 kts | 282° |
| 2026-04-22 23:34 | 36.88386 | -76.39884 | 3462 ft | 169 kts | 281° |
| 2026-04-22 23:34 | 36.88641 | -76.41311 | 3660 ft | 168 kts | 281° |
| 2026-04-22 23:34 | 36.88894 | -76.42727 | 3855 ft | 167 kts | 281° |
| 2026-04-22 23:34 | 36.89146 | -76.44145 | 4057 ft | 166 kts | 281° |
| 2026-04-22 23:35 | 36.89397 | -76.45551 | 4263 ft | 165 kts | 280° |
| 2026-04-22 23:35 | 36.89646 | -76.46947 | 4461 ft | 164 kts | 279° |
| 2026-04-22 23:35 | 36.89892 | -76.48335 | 4662 ft | 163 kts | 279° |
| 2026-04-22 23:35 | 36.90138 | -76.49713 | 4861 ft | 162 kts | 279° |
| 2026-04-22 23:36 | 36.90381 | -76.51083 | 5054 ft | 160 kts | 280° |
| 2026-04-22 23:36 | 36.90620 | -76.52430 | 5248 ft | 158 kts | 279° |
| 2026-04-22 23:36 | 36.90856 | -76.53757 | 5445 ft | 156 kts | 280° |
| 2026-04-22 23:36 | 36.91088 | -76.55069 | 5640 ft | 154 kts | 280° |
| 2026-04-22 23:37 | 36.91320 | -76.56374 | 5842 ft | 153 kts | 280° |
| 2026-04-22 23:37 | 36.91548 | -76.57667 | 6036 ft | 152 kts | 280° |
| 2026-04-22 23:37 | 36.91777 | -76.58950 | 6239 ft | 151 kts | 280° |
| 2026-04-22 23:37 | 36.92000 | -76.60217 | 6424 ft | 151 kts | 280° |
| 2026-04-22 23:38 | 36.92227 | -76.61498 | 6625 ft | 151 kts | 280° |
| 2026-04-22 23:38 | 36.92451 | -76.62773 | 6815 ft | 151 kts | 280° |
| 2026-04-22 23:38 | 36.92677 | -76.64052 | 6996 ft | 150 kts | 280° |
| 2026-04-22 23:38 | 36.92902 | -76.65329 | 7185 ft | 150 kts | 280° |
| 2026-04-22 23:39 | 36.93126 | -76.66597 | 7378 ft | 150 kts | 281° |
| 2026-04-22 23:39 | 36.93349 | -76.67865 | 7572 ft | 149 kts | 281° |
| 2026-04-22 23:39 | 36.93573 | -76.69130 | 7768 ft | 149 kts | 281° |
| 2026-04-22 23:39 | 36.93793 | -76.70391 | 7967 ft | 148 kts | 281° |
| 2026-04-22 23:40 | 36.94015 | -76.71647 | 8164 ft | 148 kts | 281° |
| 2026-04-22 23:40 | 36.94234 | -76.72895 | 8358 ft | 146 kts | 282° |
| 2026-04-22 23:40 | 36.94451 | -76.74133 | 8563 ft | 145 kts | 282° |
| 2026-04-22 23:40 | 36.94665 | -76.75347 | 8761 ft | 145 kts | 282° |
| 2026-04-22 23:41 | 36.94877 | -76.76566 | 8962 ft | 144 kts | 282° |
| 2026-04-22 23:41 | 36.95093 | -76.77789 | 9158 ft | 143 kts | 282° |
| 2026-04-22 23:41 | 36.95304 | -76.79002 | 9370 ft | 142 kts | 282° |
| 2026-04-22 23:41 | 36.95516 | -76.80207 | 9574 ft | 142 kts | 282° |
| 2026-04-22 23:42 | 36.95724 | -76.81403 | 9790 ft | 141 kts | 283° |
| 2026-04-22 23:42 | 36.95935 | -76.82608 | 9992 ft | 145 kts | 283° |
| 2026-04-22 23:42 | 36.96155 | -76.83870 | 10183 ft | 152 kts | 283° |
| 2026-04-22 23:42 | 36.96385 | -76.85185 | 10376 ft | 157 kts | 283° |
| 2026-04-22 23:43 | 36.96623 | -76.86538 | 10567 ft | 161 kts | 283° |
| 2026-04-22 23:43 | 36.96864 | -76.87926 | 10779 ft | 164 kts | 283° |
| 2026-04-22 23:43 | 36.97108 | -76.89321 | 10983 ft | 166 kts | 283° |
| 2026-04-22 23:43 | 36.97351 | -76.90726 | 11168 ft | 167 kts | 283° |
| 2026-04-22 23:44 | 36.97600 | -76.92154 | 11366 ft | 167 kts | 284° |
| 2026-04-22 23:44 | 36.97848 | -76.93578 | 11568 ft | 168 kts | 284° |
| 2026-04-22 23:44 | 36.98092 | -76.94988 | 11767 ft | 169 kts | 284° |
| 2026-04-22 23:44 | 36.98341 | -76.96421 | 11969 ft | 169 kts | 284° |
| 2026-04-22 23:45 | 36.98589 | -76.97857 | 12178 ft | 169 kts | 284° |
| 2026-04-22 23:45 | 36.98837 | -76.99281 | 12378 ft | 169 kts | 284° |
| 2026-04-22 23:45 | 36.99091 | -77.00751 | 12592 ft | 173 kts | 284° |
| 2026-04-22 23:45 | 36.99349 | -77.02238 | 12798 ft | 177 kts | 284° |
| 2026-04-22 23:46 | 36.99612 | -77.03757 | 13007 ft | 180 kts | 284° |
| 2026-04-22 23:46 | 36.99878 | -77.05295 | 13226 ft | 182 kts | 284° |
| 2026-04-22 23:46 | 37.00146 | -77.06851 | 13445 ft | 184 kts | 284° |
| 2026-04-22 23:46 | 37.00417 | -77.08422 | 13665 ft | 185 kts | 285° |
| 2026-04-22 23:47 | 37.00689 | -77.10002 | 13883 ft | 186 kts | 284° |
| 2026-04-22 23:47 | 37.00963 | -77.11588 | 14076 ft | 187 kts | 285° |
| 2026-04-22 23:47 | 37.01236 | -77.13182 | 14265 ft | 187 kts | 284° |
| 2026-04-22 23:47 | 37.01510 | -77.14775 | 14462 ft | 188 kts | 285° |
| 2026-04-22 23:48 | 37.01780 | -77.16351 | 14657 ft | 188 kts | 285° |
| 2026-04-22 23:48 | 37.02056 | -77.17952 | 14851 ft | 188 kts | 285° |
| 2026-04-22 23:48 | 37.02329 | -77.19554 | 15044 ft | 188 kts | 285° |
| 2026-04-22 23:48 | 37.02605 | -77.21158 | 15234 ft | 188 kts | 285° |
| 2026-04-22 23:49 | 37.02878 | -77.22761 | 15428 ft | 188 kts | 285° |
| 2026-04-22 23:49 | 37.03153 | -77.24358 | 15628 ft | 188 kts | 285° |
| 2026-04-22 23:49 | 37.03424 | -77.25955 | 15822 ft | 187 kts | 285° |
| 2026-04-22 23:49 | 37.03697 | -77.27546 | 16017 ft | 187 kts | 285° |
| 2026-04-22 23:50 | 37.03967 | -77.29137 | 16209 ft | 186 kts | 285° |
| 2026-04-22 23:50 | 37.04238 | -77.30722 | 16404 ft | 186 kts | 285° |
| 2026-04-22 23:50 | 37.04418 | -77.31788 | 16537 ft | 186 kts | 285° |
| 2026-04-22 23:50 | 37.04771 | -77.33856 | 16810 ft | 185 kts | 285° |
| 2026-04-22 23:51 | 37.05037 | -77.35422 | 17023 ft | 184 kts | 285° |
| 2026-04-22 23:51 | 37.05302 | -77.36984 | 17220 ft | 183 kts | 285° |
| 2026-04-22 23:51 | 37.05566 | -77.38540 | 17428 ft | 182 kts | 286° |
| 2026-04-22 23:51 | 37.05829 | -77.40093 | 17645 ft | 182 kts | 285° |
| 2026-04-22 23:52 | 37.06092 | -77.41641 | 17858 ft | 181 kts | 286° |
| 2026-04-22 23:52 | 37.06265 | -77.42662 | 17989 ft | 181 kts | 286° |
| 2026-04-22 23:52 | 37.06525 | -77.44202 | 18216 ft | 180 kts | 286° |
| 2026-04-22 23:52 | 37.06784 | -77.45734 | 18415 ft | 180 kts | 286° |
| 2026-04-22 23:53 | 37.07042 | -77.47262 | 18597 ft | 179 kts | 286° |
| 2026-04-22 23:53 | 37.07299 | -77.48787 | 18781 ft | 178 kts | 286° |
| 2026-04-22 23:53 | 37.07555 | -77.50302 | 18969 ft | 177 kts | 286° |
| 2026-04-22 23:53 | 37.07809 | -77.51812 | 19159 ft | 177 kts | 286° |
| 2026-04-22 23:54 | 37.08062 | -77.53314 | 19349 ft | 176 kts | 287° |
| 2026-04-22 23:54 | 37.08315 | -77.54812 | 19543 ft | 175 kts | 287° |
| 2026-04-22 23:54 | 37.08563 | -77.56303 | 19732 ft | 175 kts | 287° |
| 2026-04-22 23:54 | 37.08814 | -77.57787 | 19921 ft | 174 kts | 287° |
| 2026-04-22 23:55 | 37.09147 | -77.59766 | 20048 ft | 180 kts | 287° |
| 2026-04-22 23:55 | 37.09325 | -77.60818 | 20048 ft | 186 kts | 287° |
| 2026-04-22 23:55 | 37.09595 | -77.62428 | 20052 ft | 192 kts | 287° |
| 2026-04-22 23:55 | 37.09869 | -77.64063 | 20059 ft | 196 kts | 286° |
| 2026-04-22 23:56 | 37.10146 | -77.65731 | 20064 ft | 197 kts | 287° |
| 2026-04-22 23:56 | 37.10429 | -77.67428 | 20065 ft | 198 kts | 286° |
| 2026-04-22 23:56 | 37.10711 | -77.69123 | 20066 ft | 199 kts | 287° |
| 2026-04-22 23:56 | 37.10995 | -77.70826 | 20066 ft | 200 kts | 287° |
| 2026-04-22 23:57 | 37.11280 | -77.72533 | 20065 ft | 200 kts | 286° |
| 2026-04-22 23:57 | 37.11564 | -77.74243 | 20067 ft | 201 kts | 287° |
| 2026-04-22 23:57 | 37.11850 | -77.75956 | 20067 ft | 201 kts | 286° |
| 2026-04-22 23:57 | 37.12134 | -77.77673 | 20066 ft | 201 kts | 286° |
| 2026-04-22 23:58 | 37.12418 | -77.79389 | 20064 ft | 201 kts | 286° |
| 2026-04-22 23:58 | 37.12705 | -77.81109 | 20065 ft | 201 kts | 286° |
| 2026-04-22 23:58 | 37.12988 | -77.82828 | 20056 ft | 201 kts | 286° |
| 2026-04-22 23:58 | 37.13272 | -77.84546 | 20056 ft | 202 kts | 286° |
| 2026-04-22 23:59 | 37.13559 | -77.86267 | 20055 ft | 202 kts | 286° |
| 2026-04-22 23:59 | 37.13842 | -77.87991 | 20047 ft | 202 kts | 286° |
| 2026-04-22 23:59 | 37.14127 | -77.89714 | 20045 ft | 202 kts | 286° |
| 2026-04-22 23:59 | 37.14411 | -77.91438 | 20048 ft | 202 kts | 286° |
| 2026-04-23 00:00 | 37.14975 | -77.94866 | 20050 ft | 202 kts | 286° |
| 2026-04-23 00:00 | 37.15258 | -77.96589 | 20045 ft | 202 kts | 286° |
| 2026-04-23 00:00 | 37.15542 | -77.98313 | 20038 ft | 202 kts | 286° |
| 2026-04-23 00:01 | 37.15824 | -78.00036 | 20042 ft | 202 kts | 287° |
| 2026-04-23 00:01 | 37.16106 | -78.01758 | 20047 ft | 202 kts | 286° |
| 2026-04-23 00:01 | 37.16390 | -78.03482 | 20047 ft | 202 kts | 287° |
| 2026-04-23 00:01 | 37.16671 | -78.05204 | 20049 ft | 202 kts | 286° |
| 2026-04-23 00:02 | 37.16954 | -78.06932 | 20052 ft | 202 kts | 286° |
| 2026-04-23 00:02 | 37.17235 | -78.08660 | 20053 ft | 202 kts | 287° |
| 2026-04-23 00:02 | 37.17517 | -78.10390 | 20055 ft | 203 kts | 287° |
| 2026-04-23 00:02 | 37.17800 | -78.12117 | 20057 ft | 202 kts | 287° |
| 2026-04-23 00:03 | 37.18081 | -78.13848 | 20057 ft | 203 kts | 286° |
| 2026-04-23 00:03 | 37.18364 | -78.15580 | 20057 ft | 203 kts | 286° |
| 2026-04-23 00:03 | 37.18644 | -78.17310 | 20057 ft | 203 kts | 286° |
| 2026-04-23 00:03 | 37.18924 | -78.19044 | 20059 ft | 203 kts | 286° |
| 2026-04-23 00:04 | 37.19207 | -78.20773 | 20061 ft | 203 kts | 286° |
| 2026-04-23 00:04 | 37.19484 | -78.22492 | 20063 ft | 203 kts | 286° |
| 2026-04-23 00:04 | 37.19769 | -78.24243 | 20062 ft | 203 kts | 286° |
| 2026-04-23 00:04 | 37.20049 | -78.25986 | 20065 ft | 203 kts | 286° |
| 2026-04-23 00:05 | 37.20331 | -78.27721 | 20065 ft | 203 kts | 286° |
| 2026-04-23 00:05 | 37.20612 | -78.29460 | 20065 ft | 204 kts | 286° |
| 2026-04-23 00:05 | 37.20887 | -78.31173 | 20064 ft | 204 kts | 286° |
| 2026-04-23 00:05 | 37.21168 | -78.32919 | 20065 ft | 204 kts | 286° |
| 2026-04-23 00:06 | 37.21447 | -78.34656 | 20063 ft | 203 kts | 286° |
| 2026-04-23 00:06 | 37.21727 | -78.36397 | 20064 ft | 203 kts | 286° |
| 2026-04-23 00:06 | 37.22008 | -78.38136 | 20063 ft | 203 kts | 286° |
| 2026-04-23 00:06 | 37.22286 | -78.39875 | 20069 ft | 203 kts | 286° |
| 2026-04-23 00:07 | 37.22565 | -78.41614 | 20069 ft | 203 kts | 286° |
| 2026-04-23 00:07 | 37.22843 | -78.43353 | 20068 ft | 203 kts | 286° |
| 2026-04-23 00:07 | 37.23123 | -78.45093 | 20068 ft | 203 kts | 286° |
| 2026-04-23 00:07 | 37.23399 | -78.46832 | 20068 ft | 204 kts | 286° |
| 2026-04-23 00:08 | 37.23679 | -78.48576 | 20065 ft | 204 kts | 286° |
| 2026-04-23 00:08 | 37.23956 | -78.50321 | 20065 ft | 204 kts | 286° |
| 2026-04-23 00:08 | 37.24235 | -78.52066 | 20064 ft | 204 kts | 286° |
| 2026-04-23 00:08 | 37.24508 | -78.53788 | 20065 ft | 204 kts | 286° |
| 2026-04-23 00:09 | 37.24790 | -78.55553 | 20066 ft | 204 kts | 286° |
| 2026-04-23 00:09 | 37.25062 | -78.57275 | 20064 ft | 203 kts | 286° |
| 2026-04-23 00:09 | 37.25340 | -78.59013 | 20065 ft | 203 kts | 286° |
| 2026-04-23 00:09 | 37.25615 | -78.60754 | 20064 ft | 203 kts | 286° |
| 2026-04-23 00:10 | 37.25889 | -78.62491 | 20062 ft | 203 kts | 286° |
| 2026-04-23 00:10 | 37.26166 | -78.64228 | 20062 ft | 203 kts | 286° |
| 2026-04-23 00:10 | 37.26438 | -78.65960 | 20060 ft | 203 kts | 286° |
| 2026-04-23 00:10 | 37.26715 | -78.67703 | 20054 ft | 203 kts | 286° |
| 2026-04-23 00:11 | 37.26988 | -78.69446 | 20054 ft | 203 kts | 286° |
| 2026-04-23 00:11 | 37.27263 | -78.71185 | 20055 ft | 203 kts | 286° |
| 2026-04-23 00:11 | 37.27539 | -78.72926 | 20054 ft | 204 kts | 286° |
| 2026-04-23 00:11 | 37.27807 | -78.74646 | 20055 ft | 204 kts | 286° |
| 2026-04-23 00:12 | 37.28087 | -78.76420 | 20060 ft | 204 kts | 286° |
| 2026-04-23 00:12 | 37.28361 | -78.78167 | 20061 ft | 204 kts | 286° |
| 2026-04-23 00:12 | 37.28635 | -78.79914 | 20062 ft | 204 kts | 286° |
| 2026-04-23 00:12 | 37.28908 | -78.81659 | 20065 ft | 204 kts | 286° |
| 2026-04-23 00:13 | 37.29182 | -78.83404 | 20066 ft | 204 kts | 286° |
| 2026-04-23 00:13 | 37.29454 | -78.85151 | 20070 ft | 204 kts | 286° |
| 2026-04-23 00:13 | 37.29727 | -78.86896 | 20072 ft | 204 kts | 286° |
| 2026-04-23 00:13 | 37.29999 | -78.88639 | 20075 ft | 204 kts | 286° |
| 2026-04-23 00:14 | 37.30272 | -78.90387 | 20077 ft | 204 kts | 286° |
| 2026-04-23 00:14 | 37.30544 | -78.92134 | 20079 ft | 204 kts | 286° |
| 2026-04-23 00:14 | 37.30817 | -78.93884 | 20080 ft | 204 kts | 286° |
| 2026-04-23 00:14 | 37.31088 | -78.95636 | 20084 ft | 204 kts | 286° |
| 2026-04-23 00:15 | 37.31361 | -78.97389 | 20084 ft | 205 kts | 286° |
| 2026-04-23 00:15 | 37.31632 | -78.99146 | 20084 ft | 205 kts | 286° |
| 2026-04-23 00:15 | 37.31904 | -79.00900 | 20084 ft | 205 kts | 286° |
| 2026-04-23 00:15 | 37.32173 | -79.02630 | 20085 ft | 205 kts | 286° |
| 2026-04-23 00:16 | 37.32443 | -79.04386 | 20087 ft | 205 kts | 286° |
| 2026-04-23 00:16 | 37.32715 | -79.06143 | 20083 ft | 205 kts | 286° |
| 2026-04-23 00:16 | 37.32986 | -79.07900 | 20084 ft | 205 kts | 286° |
| 2026-04-23 00:16 | 37.33258 | -79.09660 | 20084 ft | 205 kts | 286° |
| 2026-04-23 00:17 | 37.33528 | -79.11419 | 20085 ft | 205 kts | 286° |
| 2026-04-23 00:17 | 37.33799 | -79.13176 | 20086 ft | 205 kts | 286° |
| 2026-04-23 00:17 | 37.34069 | -79.14938 | 20087 ft | 206 kts | 286° |
| 2026-04-23 00:17 | 37.34340 | -79.16702 | 20089 ft | 206 kts | 285° |
| 2026-04-23 00:18 | 37.34610 | -79.18467 | 20082 ft | 206 kts | 286° |
| 2026-04-23 00:18 | 37.34881 | -79.20234 | 20085 ft | 206 kts | 285° |
| 2026-04-23 00:18 | 37.35152 | -79.21999 | 20087 ft | 206 kts | 286° |
| 2026-04-23 00:18 | 37.35420 | -79.23763 | 20090 ft | 206 kts | 286° |
| 2026-04-23 00:19 | 37.35691 | -79.25528 | 20087 ft | 206 kts | 285° |
| 2026-04-23 00:19 | 37.35960 | -79.27294 | 20088 ft | 206 kts | 286° |
| 2026-04-23 00:19 | 37.36229 | -79.29053 | 20089 ft | 206 kts | 285° |
| 2026-04-23 00:19 | 37.36493 | -79.30799 | 20088 ft | 205 kts | 285° |
| 2026-04-23 00:20 | 37.36761 | -79.32564 | 20090 ft | 205 kts | 285° |
| 2026-04-23 00:20 | 37.37031 | -79.34327 | 20087 ft | 205 kts | 286° |
| 2026-04-23 00:20 | 37.37297 | -79.36090 | 20086 ft | 205 kts | 285° |
| 2026-04-23 00:20 | 37.37565 | -79.37853 | 20089 ft | 205 kts | 286° |
| 2026-04-23 00:21 | 37.37831 | -79.39613 | 20085 ft | 205 kts | 285° |
| 2026-04-23 00:21 | 37.38098 | -79.41378 | 20088 ft | 205 kts | 286° |
| 2026-04-23 00:21 | 37.38365 | -79.43141 | 20085 ft | 205 kts | 285° |
| 2026-04-23 00:21 | 37.38630 | -79.44905 | 20091 ft | 206 kts | 285° |
| 2026-04-23 00:22 | 37.38895 | -79.46650 | 20092 ft | 206 kts | 285° |
| 2026-04-23 00:22 | 37.39160 | -79.48424 | 20092 ft | 207 kts | 285° |
| 2026-04-23 00:22 | 37.39430 | -79.50203 | 20092 ft | 207 kts | 285° |
| 2026-04-23 00:22 | 37.39697 | -79.51988 | 20093 ft | 208 kts | 285° |
| 2026-04-23 00:23 | 37.39966 | -79.53770 | 20094 ft | 208 kts | 285° |
| 2026-04-23 00:23 | 37.40232 | -79.55553 | 20096 ft | 208 kts | 285° |
| 2026-04-23 00:23 | 37.40501 | -79.57345 | 20096 ft | 208 kts | 285° |
| 2026-04-23 00:23 | 37.40768 | -79.59134 | 20099 ft | 208 kts | 285° |
| 2026-04-23 00:24 | 37.41036 | -79.60919 | 20103 ft | 208 kts | 285° |
| 2026-04-23 00:24 | 37.41302 | -79.62704 | 20103 ft | 207 kts | 285° |
| 2026-04-23 00:24 | 37.41569 | -79.64487 | 20104 ft | 208 kts | 285° |
| 2026-04-23 00:24 | 37.41831 | -79.66251 | 20104 ft | 208 kts | 285° |
| 2026-04-23 00:25 | 37.42098 | -79.68043 | 20104 ft | 209 kts | 285° |
| 2026-04-23 00:25 | 37.42365 | -79.69839 | 20111 ft | 209 kts | 285° |
| 2026-04-23 00:25 | 37.42631 | -79.71637 | 20111 ft | 209 kts | 285° |
| 2026-04-23 00:25 | 37.42898 | -79.73431 | 20115 ft | 208 kts | 285° |
| 2026-04-23 00:26 | 37.43160 | -79.75214 | 20123 ft | 207 kts | 285° |
| 2026-04-23 00:26 | 37.43428 | -79.76998 | 20125 ft | 208 kts | 285° |
| 2026-04-23 00:26 | 37.43692 | -79.78790 | 20124 ft | 209 kts | 285° |
| 2026-04-23 00:26 | 37.43957 | -79.80586 | 20118 ft | 209 kts | 285° |
| 2026-04-23 00:27 | 37.44223 | -79.82384 | 20120 ft | 209 kts | 285° |
| 2026-04-23 00:27 | 37.44487 | -79.84180 | 20121 ft | 209 kts | 285° |
| 2026-04-23 00:27 | 37.44749 | -79.85965 | 20121 ft | 209 kts | 285° |
| 2026-04-23 00:27 | 37.45014 | -79.87763 | 20122 ft | 209 kts | 285° |
| 2026-04-23 00:28 | 37.45279 | -79.89565 | 20120 ft | 209 kts | 285° |
| 2026-04-23 00:28 | 37.45517 | -79.91374 | 20119 ft | 210 kts | 283° |
| 2026-04-23 00:28 | 37.45727 | -79.93191 | 20120 ft | 210 kts | 284° |
| 2026-04-23 00:28 | 37.45946 | -79.95004 | 20120 ft | 210 kts | 283° |
| 2026-04-23 00:29 | 37.46163 | -79.96821 | 20121 ft | 210 kts | 284° |
| 2026-04-23 00:29 | 37.46378 | -79.98641 | 20120 ft | 210 kts | 283° |
| 2026-04-23 00:29 | 37.46594 | -80.00462 | 20121 ft | 210 kts | 283° |
| 2026-04-23 00:29 | 37.46805 | -80.02270 | 20123 ft | 211 kts | 283° |
| 2026-04-23 00:30 | 37.47023 | -80.04116 | 20122 ft | 212 kts | 283° |
| 2026-04-23 00:30 | 37.47236 | -80.05925 | 20122 ft | 211 kts | 283° |
| 2026-04-23 00:30 | 37.47450 | -80.07751 | 20125 ft | 211 kts | 283° |
| 2026-04-23 00:30 | 37.47665 | -80.09582 | 20123 ft | 211 kts | 283° |
| 2026-04-23 00:31 | 37.47878 | -80.11412 | 20121 ft | 211 kts | 283° |
| 2026-04-23 00:31 | 37.48093 | -80.13240 | 20122 ft | 211 kts | 283° |
| 2026-04-23 00:31 | 37.48306 | -80.15067 | 20121 ft | 211 kts | 283° |
| 2026-04-23 00:31 | 37.48516 | -80.16886 | 20116 ft | 209 kts | 283° |
| 2026-04-23 00:32 | 37.48730 | -80.18702 | 20123 ft | 211 kts | 283° |
| 2026-04-23 00:32 | 37.48942 | -80.20532 | 20122 ft | 212 kts | 283° |
| 2026-04-23 00:32 | 37.49152 | -80.22342 | 20124 ft | 212 kts | 283° |
| 2026-04-23 00:32 | 37.49366 | -80.24185 | 20122 ft | 213 kts | 283° |
| 2026-04-23 00:33 | 37.49577 | -80.26023 | 20124 ft | 212 kts | 283° |
| 2026-04-23 00:33 | 37.49791 | -80.27865 | 20124 ft | 212 kts | 283° |
| 2026-04-23 00:33 | 37.50002 | -80.29702 | 20123 ft | 212 kts | 283° |
| 2026-04-23 00:33 | 37.50214 | -80.31536 | 20127 ft | 211 kts | 283° |
| 2026-04-23 00:34 | 37.50426 | -80.33373 | 20130 ft | 212 kts | 283° |
| 2026-04-23 00:34 | 37.50637 | -80.35216 | 20130 ft | 213 kts | 283° |
| 2026-04-23 00:34 | 37.50849 | -80.37047 | 20127 ft | 213 kts | 283° |
| 2026-04-23 00:34 | 37.51059 | -80.38888 | 20130 ft | 213 kts | 283° |
| 2026-04-23 00:35 | 37.51271 | -80.40733 | 20129 ft | 213 kts | 283° |
| 2026-04-23 00:35 | 37.51479 | -80.42577 | 20131 ft | 213 kts | 283° |
| 2026-04-23 00:35 | 37.51692 | -80.44424 | 20132 ft | 213 kts | 283° |
| 2026-04-23 00:35 | 37.51902 | -80.46275 | 20131 ft | 214 kts | 283° |
| 2026-04-23 00:36 | 37.52114 | -80.48129 | 20133 ft | 214 kts | 283° |
| 2026-04-23 00:36 | 37.52323 | -80.49980 | 20132 ft | 214 kts | 283° |
| 2026-04-23 00:36 | 37.52534 | -80.51834 | 20131 ft | 214 kts | 283° |
| 2026-04-23 00:36 | 37.52744 | -80.53692 | 20130 ft | 214 kts | 283° |
| 2026-04-23 00:37 | 37.52955 | -80.55547 | 20129 ft | 214 kts | 283° |
| 2026-04-23 00:37 | 37.53162 | -80.57380 | 20130 ft | 215 kts | 283° |
| 2026-04-23 00:37 | 37.53372 | -80.59242 | 20129 ft | 215 kts | 283° |
| 2026-04-23 00:37 | 37.53582 | -80.61106 | 20129 ft | 215 kts | 283° |
| 2026-04-23 00:38 | 37.53791 | -80.62969 | 20126 ft | 215 kts | 283° |
| 2026-04-23 00:38 | 37.54002 | -80.64837 | 20129 ft | 215 kts | 283° |
| 2026-04-23 00:38 | 37.54210 | -80.66702 | 20128 ft | 215 kts | 283° |
| 2026-04-23 00:38 | 37.54419 | -80.68571 | 20128 ft | 215 kts | 283° |
| 2026-04-23 00:39 | 37.54627 | -80.70433 | 20131 ft | 215 kts | 283° |
| 2026-04-23 00:39 | 37.54837 | -80.72298 | 20129 ft | 215 kts | 283° |
| 2026-04-23 00:39 | 37.55044 | -80.74162 | 20131 ft | 215 kts | 283° |
| 2026-04-23 00:39 | 37.55251 | -80.76027 | 20130 ft | 215 kts | 283° |
| 2026-04-23 00:40 | 37.55459 | -80.77891 | 20131 ft | 215 kts | 283° |
| 2026-04-23 00:40 | 37.55665 | -80.79739 | 20132 ft | 216 kts | 283° |
| 2026-04-23 00:40 | 37.55872 | -80.81619 | 20132 ft | 217 kts | 283° |
| 2026-04-23 00:40 | 37.56082 | -80.83504 | 20132 ft | 217 kts | 283° |
| 2026-04-23 00:41 | 37.56289 | -80.85389 | 20135 ft | 217 kts | 283° |
| 2026-04-23 00:41 | 37.56498 | -80.87276 | 20138 ft | 218 kts | 283° |
| 2026-04-23 00:41 | 37.56706 | -80.89156 | 20135 ft | 218 kts | 282° |
| 2026-04-23 00:41 | 37.56913 | -80.91055 | 20122 ft | 218 kts | 283° |